VILK/LKO METAR and TAF weather

Enter ICAO airport designator
Station Type Date Time Source
VILK METAR 2020/09/20 00:00 UTC NOAA

VILK 200000Z 00000KT BR FEW025 SCT100 28/26 Q1001 NOSIG


Station Type Date Time Source
VILK Decoded METAR 2020/09/20 00:00 UTC NOAA

Lucknow / Amausi, India (VILK) 26-45N 080-53E 128M
Sep 19, 2020 - 08:00 PM EDT / 2020.09.20 0000 UTC
Wind: Calm:0
Sky conditions: partly cloudy
Weather: mist
Temperature: 82 F (28 C)
Dew Point: 78 F (26 C)
Relative Humidity: 88%
Pressure (altimeter): 29.56 in. Hg (1001 hPa)
ob: VILK 200000Z 00000KT BR FEW025 SCT100 28/26 Q1001 NOSIG
cycle: 0

Station Type Date Time Source
VILK TAF 2020/09/19 18:19 UTC NOAA

TAF VILK 191700Z 1918/2024 09004KT 3000 BR SCT020 SCT025 BKN200
BECMG 2000/2002 1500 BR FEW020 SCT100
TEMPO 1920/1924 FEW030CB OVC090
BECMG 2005/2007 05004KT 3000 BR SCT020 SCT025 BKN100
BECMG 2009/2011 5000 HZ
TEMPO 2011/2015 FEW030CB OVC090
BECMG 2017/2019 VRB02KT 3000 BR SCT020 SCT100
BECMG 2022/2024 00000KT 2000 BR

Example: see airport list